No se requiere ningun cuidado especial respecto a la situación metereológica.   -   No hay avisos

Informes METAR

 

KSJC - San Jose, California, USA
Distancia de la estación: NE 14km
Actualización: 06/07/2020 06:53
Despejado
Despejado
 Viento de NNO
Viento: NNO 11 km/h
Temperatura: 18°C
Rocío: 9°C
Humedad: 56%
Barómetro: 1014.9 hPa
Nubes: Despejado
Visibilidad: 16 km
2020/07/06 04:53 KSJC 060453Z 33006KT 10SM CLR 18/09 A2997 RMK AO2 SLP148 T01830094
KNUQ - Moffett Nas/Mtn, California, USA
Distancia de la estación: N 14km
Actualización: 05/07/2020 15:55
NOT Current
Despejado
Despejado
 Viento de calm
Viento: Calma
Temperatura: 17°C
Rocío: 12°C
Humedad: 73%
Barómetro: 1016.3 hPa
Nubes: Despejado
Visibilidad: 14 km
2020/07/05 13:55 KNUQ 051355Z AUTO 00000KT 9SM CLR 17/12 A3001 RMK AO2
 
KPAO - Palo Alto, California, USA
Distancia de la estación: NNO 23km
Actualización: 06/07/2020 00:47
NOT Current
Despejado
Despejado
 Viento de ONO
Viento: ONO 22 km/h
Temperatura: 28°C
Rocío: 9°C
Humedad: 30%
Barómetro: 1014.6 hPa
Nubes: Despejado
Visibilidad: 16 km
2020/07/05 22:47 KPAO 052247Z 30012KT 10SM SKC 28/09 A2996 RMK LAST
KRHV - San Jose/Reid, California, USA
Distancia de la estación: ENE 19km
Actualización: 06/07/2020 06:47
Despejado
Despejado
 Viento de NO
Viento: NO 7 km/h
Temperatura: 19°C
Rocío: 8°C
Humedad: 49%
Barómetro: 1014.9 hPa
Nubes: Despejado
Visibilidad: 16 km
2020/07/06 04:47 KRHV 060447Z 31004KT 10SM SKC 19/08 A2997 RMK LAST
 
KOAK - Oakland, California, USA
Distancia de la estación: NNO 50km
Actualización: 06/07/2020 06:53
Despejado
Despejado
 Viento de O
Viento: O 20 km/h
Temperatura: 17°C
Rocío: 12°C
Humedad: 73%
Barómetro: 1014.9 hPa
Nubes: Despejado
Visibilidad: 16 km
2020/07/06 04:53 KOAK 060453Z 27011KT 10SM CLR 17/12 A2997 RMK AO2 SLP146 T01720117
KSQL - San Carlos Airpo, California, USA
Distancia de la estación: NO 34km
Actualización: 06/07/2020 07:35
Despejado
Despejado
 Viento de ONO
Viento: ONO 13 km/h
Temperatura: 17°C
Rocío: 8°C
Humedad: 56%
Barómetro: 1014.9 hPa
Nubes: Despejado
Visibilidad: 16 km
2020/07/06 05:35 KSQL 060535Z AUTO 29007KT 10SM CLR 17/08 A2997 RMK AO2
 
KSFO - San Francisco, California, USA
Distancia de la estación: NO 49km
Actualización: 06/07/2020 06:56
Despejado
Despejado
 Viento de ONO
Viento: ONO 20 km/h
Temperatura: 14°C
Rocío: 9°C
Humedad: 72%
Barómetro: 1014.2 hPa
Nubes: Despejado
Visibilidad: 16 km
2020/07/06 04:56 KSFO 060456Z 30011KT 10SM CLR 14/09 A2995 RMK AO2 PK WND 29028/0406 SLP141 T01440094 $
KE16 - San Martin, California, USA
Distancia de la estación: ESE 43km
Actualización: 09/06/2020 22:20
NOT Current
Despejado
Despejado
 Viento de NO
Viento: NO 17 km/h
Temperatura: 30°C
Rocío: 2°C
Humedad: 17%
Barómetro: 1020.3 hPa
Nubes: Despejado
Visibilidad: 16 km
2020/06/09 20:20 KE16 092020Z AUTO 31009KT 290V350 10SM CLR 30/02 A3013 RMK AO2 PWINO PNO
 
KWVI - Watsonville, California, USA
Distancia de la estación: SSE 44km
Actualización: 06/07/2020 06:53
Despejado
Despejado
 Viento de E
Viento: E 7 km/h
Temperatura: 14°C
Rocío: 11°C
Humedad: 82%
Barómetro: 1015.6 hPa
Nubes: Despejado
Visibilidad: 16 km
2020/07/06 04:53 KWVI 060453Z AUTO 10004KT 10SM CLR 14/11 A2999 RMK AO2 SLP154 T01440106
KHAF - Half Moon Bay, California, USA
Distancia de la estación: ONO 50km
Actualización: 06/07/2020 07:35
Neblina
Neblina
 Viento de NO
Viento: NO 15 km/h
Temperatura: 13°C
Rocío: 11°C
Humedad: 88%
Barómetro: 1016.3 hPa
Resumen: Neblina
Visibilidad: 8 km
2020/07/06 05:35 KHAF 060535Z AUTO 32008KT 5SM BR 13/11 A3001 RMK AO2
 
KHWD - Hayward, California, USA
Distancia de la estación: N 44km
Actualización: 06/07/2020 06:54
Despejado
Despejado
 Viento de O
Viento: O 9 km/h
Temperatura: 17°C
Rocío: 11°C
Humedad: 68%
Barómetro: 1014.6 hPa
Nubes: Despejado
Visibilidad: 16 km
2020/07/06 04:54 KHWD 060454Z AUTO 27005KT 10SM CLR 17/11 A2996 RMK AO2 SLP155 T01670111
KLVK - Livermore, California, USA
Distancia de la estación: NNE 51km
Actualización: 06/07/2020 06:53
Despejado
Despejado
 Viento de ONO
Viento: ONO 15 km/h
Temperatura: 18°C
Rocío: 9°C
Humedad: 56%
Barómetro: 1013.9 hPa
Nubes: Despejado
Visibilidad: 16 km
2020/07/06 04:53 KLVK 060453Z 29008KT 10SM CLR 18/09 A2994 RMK AO2 SLP133 T01830089